PKWA/KWA METAR and TAF weather

Enter ICAO airport designator
Station Type Date Time Source
PKWA METAR 2018/12/12 07:20 UTC NOAA

PKWA 120720Z AUTO 06013KT 10SM CLR 28/25 A2977 RMK AO2 T02790250


Station Type Date Time Source
PKWA Decoded METAR 2018/12/12 07:20 UTC NOAA

Kwajalein, Bucholz AAF, Kwajalein KMR ATOL Airport, Marshall Islands (PKWA) 08-43N 167-44E 2M
Dec 12, 2018 - 02:20 AM EST / 2018.12.12 0720 UTC
Wind: from the ENE (060 degrees) at 15 MPH (13 KT):0
Visibility: 10 mile(s):0
Sky conditions: clear
Temperature: 82.2 F (27.9 C)
Dew Point: 77.0 F (25.0 C)
Relative Humidity: 84%
Pressure (altimeter): 29.77 in. Hg (1008 hPa)
ob: PKWA 120720Z AUTO 06013KT 10SM CLR 28/25 A2977 RMK AO2 T02790250
cycle: 7

Station Type Date Time Source
PKWA TAF 2018/12/12 06:42 UTC NOAA

TAF PKWA 120539Z 1206/1306 06015KT P6SM VCSH SCT018 SCT030 BKN120
FM121800 09011KT P6SM VCSH SCT020 SCT045 BKN120


Example: see airport list